Time;durP1;ratioP1;P1;durP2;ratioP2;P2;SDS_P1;SDS_P2;PMS_P1;PMS_P2;Temp;Humidity;BMP_temperature;BMP_pressure;BME280_temperature;BME280_humidity;BME280_pressure;Samples;Min_cycle;Max_cycle;Signal;HPM_P1;HPM_P2
2022/04/29 00:00:30;;;;;;;2.17;1.48;;;;;;;9.31;52.82;96838.88;10352928;28;97559;-65
2022/04/29 00:05:35;;;;;;;1.77;1.40;;;;;;;9.25;52.95;96826.34;10350083;28;96778;-65
2022/04/29 00:10:39;;;;;;;2.63;1.80;;;;;;;9.18;53.63;96830.41;10339671;28;96938;-65
2022/04/29 00:15:42;;;;;;;3.75;1.70;;;;;;;8.74;55.24;96830.41;10349267;28;96977;-66
2022/04/29 00:20:49;;;;;;;2.38;1.80;;;;;;;8.75;55.69;96829.47;10350884;28;96900;-66
2022/04/29 00:25:52;;;;;;;3.03;1.65;;;;;;;8.64;55.67;96835.53;10342965;28;99364;-67
2022/04/29 00:30:54;;;;;;;2.55;2.00;;;;;;;8.47;57.00;96834.25;10345748;28;98114;-67
2022/04/29 00:35:59;;;;;;;2.78;1.75;;;;;;;8.27;57.80;96833.19;10338159;28;99578;-67
2022/04/29 00:41:01;;;;;;;3.08;1.98;;;;;;;8.16;57.24;96844.44;10344161;28;97990;-68
2022/04/29 00:46:07;;;;;;;2.30;1.65;;;;;;;8.26;55.76;96841.94;10341838;28;98852;-68
2022/04/29 00:51:12;;;;;;;2.92;1.95;;;;;;;8.25;56.87;96832.47;10337428;28;98721;-68
2022/04/29 00:56:18;;;;;;;2.45;1.80;;;;;;;8.22;57.20;96827.53;10336942;28;97892;-68
2022/04/29 01:01:24;;;;;;;3.17;1.65;;;;;;;8.22;57.07;96832.75;10353947;28;98928;-68
2022/04/29 01:06:29;;;;;;;3.85;1.80;;;;;;;8.01;57.92;96824.78;10348822;28;98543;-67
2022/04/29 01:11:33;;;;;;;3.70;1.50;;;;;;;7.95;56.96;96830.47;10346607;28;96834;-68
2022/04/29 01:16:36;;;;;;;4.32;1.95;;;;;;;7.79;58.11;96826.44;10346052;28;98965;-67
2022/04/29 01:21:40;;;;;;;3.10;1.83;;;;;;;7.70;57.80;96813.28;10345966;28;97204;-68
2022/04/29 01:26:45;;;;;;;2.55;1.90;;;;;;;7.58;58.92;96828.06;10337215;28;99271;-68
2022/04/29 01:31:50;;;;;;;2.50;1.92;;;;;;;7.50;58.91;96820.00;10332638;28;98526;-68
2022/04/29 01:36:53;;;;;;;;;;;;;;;7.54;57.95;96817.03;10337919;28;98646;-67
2022/04/29 01:41:57;;;;;;;4.93;2.13;;;;;;;7.38;59.09;96812.13;10338362;28;98929;-68
2022/04/29 01:47:00;;;;;;;2.58;2.17;;;;;;;7.15;60.50;96811.25;10342939;28;96920;-67
2022/04/29 01:52:03;;;;;;;3.40;2.25;;;;;;;7.07;61.20;96816.16;10357018;28;100622;-68
2022/04/29 01:57:09;;;;;;;4.88;2.00;;;;;;;7.05;61.26;96812.03;10344956;28;98541;-67
2022/04/29 02:02:11;;;;;;;2.75;2.15;;;;;;;7.01;61.29;96811.44;10343310;28;98664;-68
2022/04/29 02:07:14;;;;;;;4.70;2.20;;;;;;;6.96;61.21;96803.16;10350784;28;98594;-67
2022/04/29 02:12:19;;;;;;;2.53;1.80;;;;;;;6.96;60.97;96795.34;10347177;28;98660;-67
2022/04/29 02:17:21;;;;;;;2.35;1.88;;;;;;;6.91;61.67;96797.41;10341332;28;97621;-68
2022/04/29 02:22:24;;;;;;;4.25;1.95;;;;;;;6.78;62.58;96792.25;10349001;28;96812;-68
2022/04/29 02:27:28;;;;;;;2.47;2.00;;;;;;;6.75;62.95;96782.94;10346471;28;96920;-68
2022/04/29 02:32:31;;;;;;;2.33;2.10;;;;;;;6.46;63.95;96785.84;10342807;28;97321;-68
2022/04/29 02:37:34;;;;;;;3.22;1.95;;;;;;;6.38;64.21;96785.59;10347078;28;97544;-67
2022/04/29 02:42:38;;;;;;;2.63;1.85;;;;;;;6.47;63.77;96784.91;10343286;28;97997;-68
2022/04/29 02:47:42;;;;;;;3.83;2.00;;;;;;;6.47;63.75;96779.72;10343020;28;96848;-67
2022/04/29 02:52:44;;;;;;;3.35;2.30;;;;;;;6.24;65.04;96777.91;10344141;28;97658;-68
2022/04/29 02:57:49;;;;;;;4.90;2.38;;;;;;;6.13;65.51;96780.44;10343564;28;98922;-68
2022/04/29 03:02:52;;;;;;;4.28;2.55;;;;;;;6.09;65.41;96785.84;10344099;28;97736;-68
2022/04/29 03:07:55;;;;;;;3.17;2.28;;;;;;;6.17;65.64;96776.69;10347983;28;98735;-68
2022/04/29 03:12:59;;;;;;;5.20;2.40;;;;;;;6.08;65.52;96778.16;10347607;28;99249;-68
2022/04/29 03:23:24;;;;;;;2.70;2.20;;;;;;;6.03;64.50;96773.28;10340318;28;100992;-68
2022/04/29 03:28:28;;;;;;;4.25;2.63;;;;;;;5.99;65.62;96771.03;10348880;28;98059;-67
2022/04/29 03:33:31;;;;;;;2.47;2.20;;;;;;;5.93;66.15;96768.84;10350470;28;99584;-68
2022/04/29 03:38:35;;;;;;;3.28;2.28;;;;;;;5.96;65.53;96769.47;10341291;28;98645;-67
2022/04/29 03:43:39;;;;;;;4.90;2.58;;;;;;;5.94;66.13;96775.69;10341150;28;96831;-68
2022/04/29 03:54:05;;;;;;;3.67;2.25;;;;;;;5.84;66.06;96762.53;10339061;28;98099;-68
2022/04/29 03:59:09;;;;;;;5.32;2.53;;;;;;;5.86;66.26;96773.63;10337396;28;99018;-68
2022/04/29 04:04:12;;;;;;;3.47;2.35;;;;;;;5.79;66.22;96775.81;10352876;28;96883;-67
2022/04/29 04:09:15;;;;;;;5.38;2.30;;;;;;;5.67;66.75;96782.69;10337752;28;96879;-67
2022/04/29 04:14:20;;;;;;;4.15;2.38;;;;;;;5.52;67.31;96786.28;10338509;28;97683;-68
2022/04/29 04:19:22;;;;;;;5.75;3.10;;;;;;;5.59;67.13;96792.72;10349527;28;98871;-68
2022/04/29 04:24:25;;;;;;;6.10;2.80;;;;;;;5.53;67.07;96798.31;10341002;28;99097;-67
2022/04/29 04:29:31;;;;;;;8.20;2.72;;;;;;;5.37;68.32;96805.44;10346979;28;97952;-68
2022/04/29 04:34:52;;;;;;;5.00;2.92;;;;;;;5.38;68.27;96807.94;10345807;28;96941;-68
2022/04/29 04:39:58;;;;;;;3.88;2.30;;;;;;;5.49;67.97;96817.59;10345875;28;98987;-68
2022/04/29 04:45:03;;;;;;;3.88;2.40;;;;;;;5.49;68.17;96813.22;10347002;28;96776;-68
2022/04/29 04:50:06;;;;;;;;;;;;;;;5.61;67.33;96814.19;10340731;28;98719;-68
2022/04/29 04:55:10;;;;;;;4.35;2.50;;;;;;;5.56;67.76;96816.25;10358213;28;98277;-68
2022/04/29 05:00:16;;;;;;;4.82;2.80;;;;;;;5.54;68.10;96820.72;10344354;28;98884;-68
2022/04/29 05:05:18;;;;;;;;;;;;;;;5.61;67.49;96827.13;10355905;28;99144;-68
2022/04/29 05:10:22;;;;;;;2.67;2.17;;;;;;;5.71;67.01;96828.19;10334258;28;96748;-68
2022/04/29 05:15:26;;;;;;;2.92;2.63;;;;;;;5.76;67.36;96832.25;10336246;28;96973;-68
2022/04/29 05:20:29;;;;;;;4.13;2.38;;;;;;;5.90;67.51;96832.13;10333138;28;98844;-68
2022/04/29 05:25:32;;;;;;;3.38;2.47;;;;;;;5.95;67.33;96835.25;10346223;28;99193;-68
2022/04/29 05:30:37;;;;;;;5.50;2.42;;;;;;;6.11;67.73;96847.16;10340367;28;100537;-68
2022/04/29 05:35:42;;;;;;;4.72;2.50;;;;;;;6.32;67.22;96847.44;10342005;28;96843;-68
2022/04/29 05:46:08;;;;;;;3.72;2.63;;;;;;;6.59;67.05;96852.47;10338466;28;97260;-68
2022/04/29 05:51:12;;;;;;;3.85;2.55;;;;;;;6.74;66.77;96853.97;10335013;28;97203;-68
2022/04/29 05:56:15;;;;;;;4.47;2.72;;;;;;;6.93;66.36;96857.88;10341756;28;100725;-68
2022/04/29 06:01:19;;;;;;;5.20;3.10;;;;;;;7.07;66.51;96864.72;10337726;28;98001;-68
2022/04/29 06:06:22;;;;;;;3.67;2.90;;;;;;;7.25;66.44;96857.34;10351927;28;98648;-68
2022/04/29 06:11:27;;;;;;;4.40;2.42;;;;;;;7.47;64.85;96867.81;10341447;28;97009;-68
2022/04/29 06:16:31;;;;;;;4.10;2.70;;;;;;;7.64;64.51;96858.78;10345616;28;97251;-68
2022/04/29 06:21:34;;;;;;;6.37;2.90;;;;;;;7.90;64.38;96856.81;10341077;28;99573;-68
2022/04/29 06:26:37;;;;;;;7.75;3.00;;;;;;;8.14;64.88;96861.13;10331677;28;98901;-68
2022/04/29 06:31:41;;;;;;;10.32;3.53;;;;;;;8.32;65.12;96859.69;10338246;28;97648;-68
2022/04/29 06:36:45;;;;;;;6.90;3.05;;;;;;;8.61;65.20;96859.22;10345546;28;97574;-68
2022/04/29 06:41:48;;;;;;;8.43;2.88;;;;;;;8.89;65.51;96865.66;10348487;28;98209;-68
2022/04/29 06:46:52;;;;;;;4.38;2.60;;;;;;;9.18;63.86;96866.91;10346973;28;98941;-68
2022/04/29 06:51:55;;;;;;;7.95;3.00;;;;;;;9.37;63.86;96861.84;10349330;28;99284;-68
2022/04/29 06:56:58;;;;;;;5.00;3.00;;;;;;;9.62;62.37;96854.66;10346603;28;97050;-68
2022/04/29 07:02:02;;;;;;;6.18;3.33;;;;;;;9.73;61.68;96852.00;10361031;28;96958;-67
2022/04/29 07:07:05;;;;;;;5.93;3.13;;;;;;;9.88;61.17;96849.06;10350329;28;97052;-68
2022/04/29 07:12:11;;;;;;;7.88;3.35;;;;;;;10.09;60.68;96857.69;10350854;28;99032;-68
2022/04/29 07:17:17;;;;;;;5.35;3.65;;;;;;;10.21;60.28;96840.97;10356941;28;97727;-68
2022/04/29 07:22:20;;;;;;;7.68;4.63;;;;;;;10.27;59.38;96849.25;10352446;28;96736;-68
2022/04/29 07:27:23;;;;;;;5.22;4.40;;;;;;;10.33;59.13;96844.34;10345967;28;96868;-68
2022/04/29 07:32:28;;;;;;;6.53;4.20;;;;;;;10.63;58.55;96834.00;10346128;28;96886;-68
2022/04/29 07:42:52;;;;;;;6.43;4.70;;;;;;;11.04;57.14;96842.63;10336612;28;97017;-68
2022/04/29 07:47:58;;;;;;;5.57;3.90;;;;;;;11.22;57.02;96835.72;10337808;28;97429;-68
2022/04/29 07:53:02;;;;;;;5.90;4.45;;;;;;;11.43;56.53;96840.03;10338584;28;96747;-68
2022/04/29 07:58:05;;;;;;;5.13;4.10;;;;;;;11.61;56.16;96830.53;10341022;28;96893;-68
2022/04/29 08:03:10;;;;;;;6.82;4.53;;;;;;;11.82;56.45;96832.97;10346452;28;97827;-68
2022/04/29 08:08:13;;;;;;;7.28;4.50;;;;;;;12.11;56.00;96827.66;10343130;28;96910;-68
2022/04/29 08:13:16;;;;;;;7.82;4.47;;;;;;;12.43;55.59;96821.19;10339450;28;96833;-68
2022/04/29 08:18:21;;;;;;;7.03;4.60;;;;;;;12.62;55.61;96829.94;10368848;28;99045;-68
2022/04/29 08:23:24;;;;;;;5.45;4.40;;;;;;;12.92;54.98;96828.00;10352332;28;96924;-68
2022/04/29 08:28:28;;;;;;;7.00;4.75;;;;;;;13.23;53.55;96826.66;10339181;28;96864;-68
2022/04/29 08:33:33;;;;;;;7.20;4.72;;;;;;;13.66;52.66;96823.44;10343229;28;96926;-68
2022/04/29 08:38:36;;;;;;;;;;;;;;;14.06;53.22;96822.88;10344558;28;96830;-68
2022/04/29 08:43:40;;;;;;;9.95;5.50;;;;;;;14.45;51.88;96824.25;10341575;28;96870;-68
2022/04/29 08:48:48;;;;;;;6.18;5.25;;;;;;;14.77;50.36;96820.94;10342699;28;96985;-68
2022/04/29 08:53:51;;;;;;;8.07;5.55;;;;;;;15.04;50.46;96821.66;10343047;28;96962;-68
2022/04/29 08:58:54;;;;;;;7.25;5.57;;;;;;;15.15;49.83;96813.47;10339520;28;96897;-68
2022/04/29 09:03:59;;;;;;;9.10;5.30;;;;;;;15.25;48.99;96810.66;10339890;28;97132;-68
2022/04/29 09:09:08;;;;;;;;;;;;;;;15.38;50.17;96812.81;10343210;28;97213;-68
2022/04/29 09:14:20;;;;;;;8.18;5.25;;;;;;;15.31;49.27;96810.84;10341429;28;97045;-68
2022/04/29 09:19:32;;;;;;;7.13;5.63;;;;;;;15.52;47.86;96800.81;10337459;28;96782;-68
2022/04/29 09:24:35;;;;;;;10.95;6.63;;;;;;;15.72;47.84;96791.63;10341351;28;96924;-68
2022/04/29 09:29:41;;;;;;;8.70;5.60;;;;;;;15.84;47.86;96790.28;10341938;28;99304;-68
2022/04/29 09:34:46;;;;;;;8.48;5.63;;;;;;;15.76;48.08;96777.13;10337612;28;97013;-68
2022/04/29 09:39:53;;;;;;;7.53;5.40;;;;;;;15.77;47.94;96770.03;10342200;28;96955;-68
2022/04/29 09:44:56;;;;;;;8.60;5.95;;;;;;;15.79;47.29;96765.41;10341644;28;96741;-68
2022/04/29 09:50:02;;;;;;;7.75;5.47;;;;;;;15.92;47.90;96775.44;10355101;28;98607;-68
2022/04/29 09:55:12;;;;;;;7.50;5.75;;;;;;;15.93;47.24;96763.91;10354344;28;96847;-68
2022/04/29 10:00:16;;;;;;;7.10;5.03;;;;;;;16.01;47.68;96766.53;10342913;28;96837;-68
2022/04/29 10:05:20;;;;;;;7.78;6.13;;;;;;;16.04;46.59;96753.84;10341879;28;96752;-68
2022/04/29 10:10:25;;;;;;;;;;;;;;;16.20;47.42;96747.69;10340761;28;98401;-69
2022/04/29 10:15:28;;;;;;;6.63;5.40;;;;;;;16.51;46.49;96743.44;10342883;28;98831;-68
2022/04/29 10:25:56;;;;;;;8.20;5.93;;;;;;;17.02;45.03;96729.81;10370133;28;96742;-68
2022/04/29 10:31:01;;;;;;;6.55;4.85;;;;;;;17.26;44.25;96729.59;10370098;28;96804;-69
2022/04/29 10:36:10;;;;;;;5.45;4.07;;;;;;;17.51;43.79;96726.78;10365244;28;96934;-69
2022/04/29 10:41:16;;;;;;;7.10;4.53;;;;;;;17.71;44.46;96725.22;10366138;28;96950;-68
2022/04/29 10:46:23;;;;;;;9.93;5.78;;;;;;;17.74;43.26;96719.59;10370617;28;96826;-68
2022/04/29 10:51:49;;;;;;;7.68;5.75;;;;;;;17.87;42.93;96715.53;10368788;28;97364;-68
2022/04/29 10:57:01;;;;;;;7.25;5.18;;;;;;;18.00;43.24;96707.78;10363956;28;97354;-69
2022/04/29 11:02:13;;;;;;;6.30;4.65;;;;;;;18.34;43.42;96698.44;10370682;28;96975;-69
2022/04/29 11:07:42;;;;;;;7.28;5.30;;;;;;;18.68;42.84;96691.72;10342086;28;96894;-69
2022/04/29 11:12:59;;;;;;;5.28;4.15;;;;;;;18.87;42.16;96693.75;10345619;28;97067;-69
2022/04/29 11:18:18;;;;;;;6.40;4.65;;;;;;;18.80;42.26;96686.75;10346311;28;96775;-69
2022/04/29 11:28:52;;;;;;;5.03;3.47;;;;;;;18.94;41.91;96680.59;10341631;28;96967;-69
2022/04/29 11:34:05;;;;;;;5.13;4.00;;;;;;;19.00;40.60;96681.66;10344472;28;99660;-69
2022/04/29 11:39:14;;;;;;;5.80;4.13;;;;;;;19.00;39.97;96673.72;10344076;28;96939;-70
2022/04/29 11:44:18;;;;;;;6.03;4.18;;;;;;;19.02;40.21;96669.06;10344480;28;97690;-69
2022/04/29 11:49:29;;;;;;;4.65;3.70;;;;;;;19.16;40.16;96656.75;10339806;28;98111;-69
2022/04/29 11:54:34;;;;;;;6.10;3.95;;;;;;;19.22;40.53;96654.16;10344091;28;99751;-71
2022/04/29 11:59:38;;;;;;;5.18;3.40;;;;;;;19.27;40.35;96655.41;10346391;28;97891;-69
2022/04/29 12:04:53;;;;;;;4.57;3.28;;;;;;;19.55;40.57;96647.44;10340560;28;96892;-69
2022/04/29 12:09:59;;;;;;;3.88;3.33;;;;;;;19.91;39.54;96636.66;10355430;28;96848;-69
2022/04/29 12:15:03;;;;;;;4.20;2.80;;;;;;;20.13;39.46;96636.53;10345198;28;96753;-69
2022/04/29 12:20:08;;;;;;;4.00;3.00;;;;;;;20.52;38.78;96632.41;10342063;28;96915;-69
2022/04/29 12:25:27;;;;;;;4.10;2.80;;;;;;;20.77;38.06;96634.50;10340080;28;96879;-69
2022/04/29 12:35:51;;;;;;;2.75;2.42;;;;;;;20.87;38.03;96621.66;10344561;28;96955;-67
2022/04/29 12:40:56;;;;;;;3.75;2.33;;;;;;;21.02;37.25;96624.94;10339305;28;96919;-67
2022/04/29 12:46:12;;;;;;;4.63;2.45;;;;;;;21.15;36.78;96620.63;10341801;28;96832;-67
2022/04/29 12:51:24;;;;;;;2.08;1.80;;;;;;;21.16;37.78;96614.31;10342581;28;96794;-67
2022/04/29 12:56:30;;;;;;;4.20;1.70;;;;;;;21.16;36.51;96614.31;10342394;28;96921;-67
2022/04/29 13:01:37;;;;;;;3.05;1.80;;;;;;;21.31;35.51;96604.25;10338123;28;97058;-67
2022/04/29 13:06:41;;;;;;;1.75;1.40;;;;;;;21.53;34.81;96602.19;10342970;28;96839;-67
2022/04/29 13:11:46;;;;;;;5.63;1.55;;;;;;;21.80;33.64;96602.97;10342227;28;97955;-67
2022/04/29 13:16:49;;;;;;;2.03;1.50;;;;;;;22.07;33.25;96592.22;10339860;28;97862;-67
2022/04/29 13:21:52;;;;;;;2.42;1.52;;;;;;;22.38;32.68;96582.63;10352869;28;97975;-67
2022/04/29 13:26:57;;;;;;;1.50;1.20;;;;;;;22.54;32.18;96582.16;10341819;28;96789;-67
2022/04/29 13:32:00;;;;;;;2.40;1.50;;;;;;;22.50;31.69;96569.50;10339113;28;97109;-67
2022/04/29 13:37:04;;;;;;;3.17;1.50;;;;;;;22.60;31.38;96575.97;10339593;28;96891;-68
2022/04/29 13:42:08;;;;;;;4.05;1.20;;;;;;;22.79;31.45;96565.41;10341010;28;96995;-67
2022/04/29 13:47:14;;;;;;;2.25;1.48;;;;;;;22.87;31.45;96562.44;10340106;28;96936;-67
2022/04/29 13:57:39;;;;;;;2.72;1.33;;;;;;;23.02;30.17;96550.66;10341822;28;96818;-67
2022/04/29 14:02:43;;;;;;;2.38;1.10;;;;;;;23.10;29.94;96556.53;10341586;28;96711;-67
2022/04/29 14:07:46;;;;;;;2.65;1.17;;;;;;;22.74;28.13;96552.72;10336314;28;96853;-67
2022/04/29 14:12:51;;;;;;;1.53;1.20;;;;;;;22.28;28.91;96548.50;10339493;28;101772;-67
2022/04/29 14:17:55;;;;;;;2.25;1.30;;;;;;;22.03;27.78;96553.78;10340676;28;97250;-67
2022/04/29 14:22:58;;;;;;;1.27;0.90;;;;;;;21.56;26.41;96548.59;10337457;28;97232;-67
2022/04/29 14:28:02;;;;;;;1.95;0.90;;;;;;;21.28;26.62;96540.94;10338667;28;96758;-67
2022/04/29 14:33:05;;;;;;;1.30;0.77;;;;;;;21.19;25.94;96539.50;10341938;28;96949;-67
2022/04/29 14:38:09;;;;;;;1.47;1.20;;;;;;;21.06;24.90;96538.50;10338487;28;96981;-67
2022/04/29 14:43:13;;;;;;;2.53;0.90;;;;;;;20.98;25.62;96541.38;10337219;28;96921;-67
2022/04/29 14:48:16;;;;;;;1.77;1.10;;;;;;;20.85;25.85;96541.38;10340928;28;97196;-67
2022/04/29 14:53:19;;;;;;;1.95;1.33;;;;;;;20.65;26.89;96544.00;10342429;28;96786;-67
2022/04/29 14:58:24;;;;;;;2.17;1.23;;;;;;;20.57;26.38;96534.41;10342112;28;96789;-67
2022/04/29 15:03:27;;;;;;;;;;;;;;;20.32;27.33;96535.00;10347554;28;96760;-67
2022/04/29 15:08:30;;;;;;;1.13;0.82;;;;;;;20.15;27.67;96536.41;10346238;28;96978;-67
2022/04/29 15:18:56;;;;;;;1.98;1.10;;;;;;;19.77;28.17;96528.91;10357381;28;96853;-67
2022/04/29 15:23:58;;;;;;;1.30;1.10;;;;;;;19.56;28.59;96533.31;10346225;28;96974;-67
2022/04/29 15:29:03;;;;;;;1.90;1.20;;;;;;;19.45;28.56;96525.91;10343214;28;97071;-67
2022/04/29 15:34:06;;;;;;;1.63;1.10;;;;;;;19.51;27.68;96530.44;10343079;28;96871;-67
2022/04/29 15:39:09;;;;;;;2.00;1.10;;;;;;;19.27;28.48;96537.03;10346328;28;96982;-67
2022/04/29 15:44:13;;;;;;;2.15;1.10;;;;;;;19.11;29.35;96530.22;10344199;28;96954;-67
2022/04/29 15:49:16;;;;;;;2.88;1.10;;;;;;;19.01;28.97;96530.56;10340803;28;96923;-67
2022/04/29 15:54:19;;;;;;;3.78;1.10;;;;;;;19.11;29.38;96509.03;10345919;28;97097;-67
2022/04/29 15:59:24;;;;;;;5.18;1.33;;;;;;;18.98;30.23;96516.88;10344904;28;96808;-67
2022/04/29 16:04:28;;;;;;;2.72;1.40;;;;;;;18.76;30.88;96522.22;10338637;28;96873;-67
2022/04/29 16:09:30;;;;;;;2.50;1.40;;;;;;;18.67;31.60;96526.84;10344237;28;96914;-67
2022/04/29 16:14:35;;;;;;;5.68;1.40;;;;;;;18.49;31.33;96521.19;10344455;28;97515;-67
2022/04/29 16:30:21;;;;;;;2.70;1.67;;;;;;;18.62;31.62;96517.81;10346942;28;96919;-67
2022/04/29 16:35:24;;;;;;;;;;;;;;;18.48;32.12;96515.09;10343686;28;97316;-67
2022/04/29 16:40:27;;;;;;;2.15;1.25;;;;;;;18.19;32.26;96516.03;10338819;28;96897;-67
2022/04/29 16:45:31;;;;;;;1.88;1.27;;;;;;;17.97;32.47;96517.84;10342818;28;96956;-67
2022/04/29 16:50:39;;;;;;;1.92;1.23;;;;;;;17.73;32.93;96527.72;10343028;28;97240;-67
2022/04/29 16:55:42;;;;;;;2.63;1.40;;;;;;;17.65;33.60;96522.53;10339360;28;96823;-67
2022/04/29 17:00:46;;;;;;;3.05;1.10;;;;;;;17.53;34.07;96522.19;10342722;28;96892;-67
2022/04/29 17:05:49;;;;;;;4.60;1.30;;;;;;;17.37;33.90;96528.50;10342767;28;97116;-67
2022/04/29 17:10:53;;;;;;;3.72;1.40;;;;;;;17.32;34.17;96519.50;10340437;28;98099;-67
2022/04/29 17:15:57;;;;;;;2.53;1.40;;;;;;;17.06;35.01;96525.19;10369129;28;97309;-66
2022/04/29 17:21:00;;;;;;;3.00;1.40;;;;;;;16.89;35.66;96535.94;10356802;28;96809;-66
2022/04/29 17:26:05;;;;;;;2.35;1.42;;;;;;;16.72;35.43;96521.25;10339669;28;96765;-66
2022/04/29 17:31:09;;;;;;;2.70;1.50;;;;;;;16.50;36.46;96529.03;10346594;28;96873;-66
2022/04/29 17:36:12;;;;;;;3.05;1.38;;;;;;;16.38;36.22;96535.69;10342282;28;97550;-66
2022/04/29 17:46:36;;;;;;;3.10;1.48;;;;;;;16.19;36.37;96547.53;10366671;28;97022;-66
2022/04/29 17:51:39;;;;;;;5.95;3.75;;;;;;;16.12;36.41;96555.34;10353019;28;97009;-64
2022/04/29 17:56:42;;;;;;;2.33;1.67;;;;;;;15.98;37.56;96553.41;10363640;28;96838;-66
2022/04/29 18:01:46;;;;;;;3.17;2.05;;;;;;;15.87;38.17;96557.28;10362167;28;97960;-64
2022/04/29 18:06:49;;;;;;;2.05;1.60;;;;;;;15.77;37.57;96546.97;10347641;28;96840;-65
2022/04/29 18:11:52;;;;;;;5.45;1.90;;;;;;;15.69;38.38;96545.19;10360807;28;98591;-69
2022/04/29 18:16:56;;;;;;;4.13;2.00;;;;;;;15.66;36.91;96552.63;10351916;28;96831;-67
2022/04/29 18:22:01;;;;;;;4.00;2.25;;;;;;;15.56;37.75;96549.31;10364509;28;97023;-66
2022/04/29 18:27:05;;;;;;;3.70;1.85;;;;;;;15.42;38.59;96556.94;10359872;28;98002;-68
2022/04/29 18:32:10;;;;;;;4.50;1.55;;;;;;;15.44;37.37;96556.78;10366717;28;98072;-67
2022/04/29 18:37:14;;;;;;;7.65;5.55;;;;;;;15.46;37.01;96550.38;10370809;28;97540;-67
2022/04/29 18:42:17;;;;;;;19.57;12.93;;;;;;;15.54;36.90;96560.03;10364490;28;97768;-67
2022/04/29 18:47:25;;;;;;;3.33;1.50;;;;;;;15.62;36.75;96575.03;10361825;28;96875;-67
2022/04/29 18:52:28;;;;;;;2.60;1.40;;;;;;;15.69;36.01;96581.25;10357688;28;96948;-67
2022/04/29 18:57:30;;;;;;;2.40;1.50;;;;;;;15.72;36.37;96583.53;10346565;28;97632;-67
2022/04/29 19:02:35;;;;;;;2.97;1.75;;;;;;;15.68;37.07;96588.31;10353282;28;96937;-67
2022/04/29 19:07:38;;;;;;;7.85;2.08;;;;;;;15.71;37.20;96595.06;10355299;28;96709;-67
2022/04/29 19:12:41;;;;;;;7.55;2.10;;;;;;;15.69;38.00;96604.94;10354191;28;96851;-67
2022/04/29 19:17:45;;;;;;;3.42;1.80;;;;;;;15.54;38.92;96606.63;10350617;28;97028;-67
2022/04/29 19:22:48;;;;;;;2.97;1.67;;;;;;;15.48;38.39;96611.56;10351147;28;97789;-67
2022/04/29 19:27:51;;;;;;;3.22;1.67;;;;;;;15.47;38.84;96604.66;10358489;28;98008;-67
2022/04/29 19:32:57;;;;;;;3.78;1.55;;;;;;;15.50;38.85;96609.56;10345549;28;96966;-67
2022/04/29 19:38:00;;;;;;;3.20;1.35;;;;;;;15.55;38.66;96600.34;10341195;28;96873;-67
2022/04/29 19:43:02;;;;;;;4.35;1.73;;;;;;;15.53;38.48;96604.97;10343632;28;96742;-67
2022/04/29 19:48:09;;;;;;;4.05;1.60;;;;;;;15.46;39.03;96607.44;10346506;28;97965;-67
2022/04/29 19:53:12;;;;;;;4.50;1.63;;;;;;;15.46;38.91;96607.44;10344667;28;99717;-67
2022/04/29 20:03:55;;;;;;;3.65;1.05;;;;;;;15.36;38.83;96607.66;10356657;28;97668;-67
2022/04/29 20:09:02;;;;;;;2.33;1.48;;;;;;;15.28;39.79;96608.47;10343523;28;97160;-67
2022/04/29 20:14:06;;;;;;;2.13;1.20;;;;;;;15.19;40.07;96600.78;10342224;28;96763;-67
2022/04/29 20:19:10;;;;;;;2.05;1.40;;;;;;;15.18;39.58;96599.13;10341488;28;96999;-67
2022/04/29 20:24:16;;;;;;;2.30;1.75;;;;;;;15.13;39.60;96597.03;10345989;28;97183;-67
2022/04/29 20:29:19;;;;;;;3.15;1.60;;;;;;;15.10;40.03;96587.63;10343826;28;96956;-67
2022/04/29 20:34:23;;;;;;;2.85;1.70;;;;;;;15.11;40.64;96589.28;10338325;28;96818;-67
2022/04/29 20:44:47;;;;;;;3.45;1.60;;;;;;;15.07;40.61;96581.88;10344249;28;96881;-67
2022/04/29 20:49:52;;;;;;;4.27;1.77;;;;;;;15.01;41.40;96577.28;10338655;28;97051;-67
2022/04/29 20:54:55;;;;;;;6.00;1.77;;;;;;;15.01;41.33;96580.75;10354094;28;96945;-67
2022/04/29 20:59:58;;;;;;;3.55;2.00;;;;;;;14.99;40.94;96579.25;10341889;28;96879;-67
2022/04/29 21:05:02;;;;;;;2.90;2.00;;;;;;;14.73;42.19;96577.66;10341431;28;96907;-67
2022/04/29 21:10:06;;;;;;;;;;;;;;;14.42;42.98;96572.22;10340120;28;96765;-67
2022/04/29 21:15:10;;;;;;;2.80;1.55;;;;;;;14.26;44.04;96559.88;10342377;28;97059;-67
2022/04/29 21:20:16;;;;;;;3.72;1.90;;;;;;;14.23;45.08;96573.31;10341348;28;97047;-67
2022/04/29 21:25:19;;;;;;;3.58;2.08;;;;;;;14.15;46.06;96587.28;10338176;28;97155;-67
2022/04/29 21:35:44;;;;;;;4.05;1.80;;;;;;;14.00;45.27;96569.53;10342581;28;96772;-67
2022/04/29 21:40:47;;;;;;;4.33;2.13;;;;;;;13.82;46.76;96568.81;10339311;28;97008;-67
2022/04/29 21:45:50;;;;;;;3.72;2.00;;;;;;;13.61;46.50;96570.06;10341868;28;102078;-67
2022/04/29 21:50:55;;;;;;;4.82;2.88;;;;;;;13.64;46.58;96566.31;10340304;28;99299;-67
2022/04/29 21:55:58;;;;;;;4.10;2.13;;;;;;;13.59;46.58;96560.72;10338665;28;97217;-67
2022/04/29 22:01:06;;;;;;;4.80;2.92;;;;;;;13.43;47.95;96566.72;10340358;28;97066;-67
2022/04/29 22:06:11;;;;;;;4.65;2.65;;;;;;;13.30;47.64;96561.06;10348633;28;97347;-67
2022/04/29 22:11:14;;;;;;;4.18;2.33;;;;;;;13.10;48.91;96571.81;10347322;28;97045;-67
2022/04/29 22:16:17;;;;;;;5.65;2.42;;;;;;;12.75;49.84;96568.28;10344593;28;96774;-67
2022/04/29 22:21:22;;;;;;;3.70;1.75;;;;;;;12.49;50.65;96563.81;10349402;28;96760;-67
2022/04/29 22:26:29;;;;;;;3.05;1.77;;;;;;;12.38;50.14;96565.84;10348943;28;96855;-67
2022/04/29 22:31:32;;;;;;;;;;;;;;;12.29;49.72;96562.34;10343859;28;99753;-67
2022/04/29 22:36:36;;;;;;;3.33;1.70;;;;;;;11.89;51.49;96559.16;10346972;28;96978;-67
2022/04/29 22:41:39;;;;;;;4.93;2.00;;;;;;;11.72;50.70;96560.78;10346908;28;96766;-67
2022/04/29 22:46:42;;;;;;;4.25;1.63;;;;;;;11.72;51.34;96560.78;10343024;28;96762;-67
2022/04/29 22:51:46;;;;;;;5.38;2.33;;;;;;;11.76;51.30;96560.50;10346067;28;96819;-67
2022/04/29 22:56:50;;;;;;;3.83;1.60;;;;;;;11.59;52.27;96554.25;10347525;28;96868;-67
2022/04/29 23:01:53;;;;;;;3.75;2.05;;;;;;;11.64;52.16;96554.63;10344378;28;97003;-67
2022/04/29 23:06:57;;;;;;;4.05;2.10;;;;;;;11.55;53.08;96548.50;10345723;28;97010;-67
2022/04/29 23:12:00;;;;;;;5.90;2.07;;;;;;;11.45;52.57;96547.72;10346380;28;100185;-67
2022/04/29 23:19:11;;;;;;;4.93;2.45;;;;;;;11.38;52.26;96547.50;10344547;28;96769;-67
2022/04/29 23:22:28;;;;;;;5.32;1.90;;;;;;;11.34;53.22;96552.16;10341112;28;96905;-67
2022/04/29 23:27:31;;;;;;;5.80;2.80;;;;;;;11.31;53.42;96555.09;10346138;28;96762;-67
2022/04/29 23:32:34;;;;;;;5.93;2.10;;;;;;;11.30;53.75;96548.16;10344694;28;96942;-67
2022/04/29 23:37:39;;;;;;;5.57;2.25;;;;;;;11.39;53.65;96543.06;10341630;28;99558;-67
2022/04/29 23:42:42;;;;;;;6.00;2.50;;;;;;;11.49;53.73;96543.84;10346461;28;96898;-67
2022/04/29 23:47:46;;;;;;;5.22;2.22;;;;;;;11.50;53.09;96550.72;10345859;28;96941;-67
2022/04/29 23:52:50;;;;;;;4.95;2.40;;;;;;;11.55;52.85;96549.31;10340761;28;97046;-67
2022/04/29 23:57:53;;;;;;;10.27;3.17;;;;;;;11.58;53.38;96553.44;10363050;28;98405;-67
